sensor_id;sensor_type;location;lat;lon;timestamp;P1;durP1;ratioP1;P2;durP2;ratioP2
27051;SDS011;14601;49.358;8.256;2022-08-01T00:00:52;3.25;;;2.47;;
27051;SDS011;14601;49.358;8.256;2022-08-01T00:03:53;3.78;;;2.00;;
27051;SDS011;14601;49.358;8.256;2022-08-01T00:06:57;1.98;;;1.80;;
27051;SDS011;14601;49.358;8.256;2022-08-01T00:09:58;2.70;;;2.00;;
27051;SDS011;14601;49.358;8.256;2022-08-01T00:13:00;2.22;;;2.03;;
27051;SDS011;14601;49.358;8.256;2022-08-01T00:16:02;3.25;;;2.20;;
27051;SDS011;14601;49.358;8.256;2022-08-01T00:19:04;2.97;;;2.38;;
27051;SDS011;14601;49.358;8.256;2022-08-01T00:22:07;2.38;;;1.98;;
27051;SDS011;14601;49.358;8.256;2022-08-01T00:25:09;3.28;;;2.60;;
27051;SDS011;14601;49.358;8.256;2022-08-01T00:28:11;3.38;;;2.70;;
27051;SDS011;14601;49.358;8.256;2022-08-01T00:31:13;3.28;;;2.20;;
27051;SDS011;14601;49.358;8.256;2022-08-01T00:34:15;2.45;;;2.25;;
27051;SDS011;14601;49.358;8.256;2022-08-01T00:37:18;2.17;;;2.03;;
27051;SDS011;14601;49.358;8.256;2022-08-01T00:40:20;2.00;;;1.80;;
27051;SDS011;14601;49.358;8.256;2022-08-01T00:43:22;2.08;;;1.83;;
27051;SDS011;14601;49.358;8.256;2022-08-01T00:46:24;2.60;;;2.00;;
27051;SDS011;14601;49.358;8.256;2022-08-01T00:49:26;2.75;;;1.88;;
27051;SDS011;14601;49.358;8.256;2022-08-01T00:52:30;1.92;;;1.83;;
27051;SDS011;14601;49.358;8.256;2022-08-01T00:55:32;2.20;;;1.85;;
27051;SDS011;14601;49.358;8.256;2022-08-01T00:58:33;2.90;;;1.70;;
27051;SDS011;14601;49.358;8.256;2022-08-01T01:01:35;2.17;;;1.98;;
27051;SDS011;14601;49.358;8.256;2022-08-01T01:04:37;2.10;;;1.92;;
27051;SDS011;14601;49.358;8.256;2022-08-01T01:07:43;2.35;;;2.05;;
27051;SDS011;14601;49.358;8.256;2022-08-01T01:10:50;4.68;;;2.28;;
27051;SDS011;14601;49.358;8.256;2022-08-01T01:13:57;2.30;;;2.10;;
27051;SDS011;14601;49.358;8.256;2022-08-01T01:17:06;3.65;;;2.22;;
27051;SDS011;14601;49.358;8.256;2022-08-01T01:20:10;3.70;;;2.00;;
27051;SDS011;14601;49.358;8.256;2022-08-01T01:26:43;2.53;;;2.22;;
27051;SDS011;14601;49.358;8.256;2022-08-01T01:29:54;4.60;;;2.33;;
27051;SDS011;14601;49.358;8.256;2022-08-01T01:32:58;4.15;;;2.20;;
27051;SDS011;14601;49.358;8.256;2022-08-01T01:36:03;2.22;;;2.10;;
27051;SDS011;14601;49.358;8.256;2022-08-01T01:39:07;3.93;;;2.40;;
27051;SDS011;14601;49.358;8.256;2022-08-01T01:42:09;4.80;;;2.40;;
27051;SDS011;14601;49.358;8.256;2022-08-01T01:45:12;4.28;;;2.30;;
27051;SDS011;14601;49.358;8.256;2022-08-01T01:48:16;2.78;;;2.22;;
27051;SDS011;14601;49.358;8.256;2022-08-01T01:51:20;3.08;;;2.08;;
27051;SDS011;14601;49.358;8.256;2022-08-01T01:54:35;2.43;;;2.23;;
27051;SDS011;14601;49.358;8.256;2022-08-01T01:57:39;3.67;;;2.75;;
27051;SDS011;14601;49.358;8.256;2022-08-01T02:00:45;2.97;;;2.42;;
27051;SDS011;14601;49.358;8.256;2022-08-01T02:03:49;2.72;;;2.33;;
27051;SDS011;14601;49.358;8.256;2022-08-01T02:06:54;4.13;;;2.38;;
27051;SDS011;14601;49.358;8.256;2022-08-01T02:09:57;2.22;;;1.90;;
27051;SDS011;14601;49.358;8.256;2022-08-01T02:13:01;1.98;;;1.88;;
27051;SDS011;14601;49.358;8.256;2022-08-01T02:16:06;3.08;;;2.40;;
27051;SDS011;14601;49.358;8.256;2022-08-01T02:19:11;3.63;;;1.95;;
27051;SDS011;14601;49.358;8.256;2022-08-01T02:22:16;2.17;;;1.92;;
27051;SDS011;14601;49.358;8.256;2022-08-01T02:25:27;2.25;;;2.00;;
27051;SDS011;14601;49.358;8.256;2022-08-01T02:28:35;3.83;;;1.80;;
27051;SDS011;14601;49.358;8.256;2022-08-01T02:31:41;4.75;;;1.90;;
27051;SDS011;14601;49.358;8.256;2022-08-01T02:34:47;2.42;;;1.75;;
27051;SDS011;14601;49.358;8.256;2022-08-01T02:37:52;2.42;;;1.70;;
27051;SDS011;14601;49.358;8.256;2022-08-01T02:40:55;5.13;;;2.33;;
27051;SDS011;14601;49.358;8.256;2022-08-01T02:44:02;3.70;;;1.83;;
27051;SDS011;14601;49.358;8.256;2022-08-01T02:47:07;3.58;;;1.67;;
27051;SDS011;14601;49.358;8.256;2022-08-01T02:50:10;2.53;;;1.70;;
27051;SDS011;14601;49.358;8.256;2022-08-01T02:53:18;2.47;;;1.60;;
27051;SDS011;14601;49.358;8.256;2022-08-01T02:56:21;1.63;;;1.42;;
27051;SDS011;14601;49.358;8.256;2022-08-01T02:59:35;3.38;;;1.80;;
27051;SDS011;14601;49.358;8.256;2022-08-01T03:02:41;5.57;;;2.13;;
27051;SDS011;14601;49.358;8.256;2022-08-01T03:05:45;2.05;;;1.80;;
27051;SDS011;14601;49.358;8.256;2022-08-01T03:08:48;2.50;;;1.80;;
27051;SDS011;14601;49.358;8.256;2022-08-01T03:11:52;2.97;;;1.60;;
27051;SDS011;14601;49.358;8.256;2022-08-01T03:14:56;2.10;;;1.90;;
27051;SDS011;14601;49.358;8.256;2022-08-01T03:18:02;6.00;;;1.80;;
27051;SDS011;14601;49.358;8.256;2022-08-01T03:21:06;1.92;;;1.50;;
27051;SDS011;14601;49.358;8.256;2022-08-01T03:24:10;1.90;;;1.50;;
27051;SDS011;14601;49.358;8.256;2022-08-01T03:27:14;1.90;;;1.80;;
27051;SDS011;14601;49.358;8.256;2022-08-01T03:30:17;2.22;;;1.70;;
27051;SDS011;14601;49.358;8.256;2022-08-01T03:33:20;1.63;;;1.50;;
27051;SDS011;14601;49.358;8.256;2022-08-01T03:36:23;2.92;;;1.40;;
27051;SDS011;14601;49.358;8.256;2022-08-01T03:39:30;4.03;;;1.40;;
27051;SDS011;14601;49.358;8.256;2022-08-01T03:42:37;2.45;;;1.50;;
27051;SDS011;14601;49.358;8.256;2022-08-01T03:45:46;3.47;;;1.90;;
27051;SDS011;14601;49.358;8.256;2022-08-01T03:48:53;3.05;;;1.70;;
27051;SDS011;14601;49.358;8.256;2022-08-01T03:51:58;7.05;;;1.90;;
27051;SDS011;14601;49.358;8.256;2022-08-01T03:55:04;1.70;;;1.60;;
27051;SDS011;14601;49.358;8.256;2022-08-01T03:58:08;2.75;;;1.98;;
27051;SDS011;14601;49.358;8.256;2022-08-01T04:01:11;5.70;;;2.22;;
27051;SDS011;14601;49.358;8.256;2022-08-01T04:04:16;2.42;;;2.22;;
27051;SDS011;14601;49.358;8.256;2022-08-01T04:07:21;3.25;;;2.13;;
27051;SDS011;14601;49.358;8.256;2022-08-01T04:10:25;2.58;;;2.05;;
27051;SDS011;14601;49.358;8.256;2022-08-01T04:13:27;3.67;;;2.03;;
27051;SDS011;14601;49.358;8.256;2022-08-01T04:16:29;4.25;;;2.00;;
27051;SDS011;14601;49.358;8.256;2022-08-01T04:19:32;4.13;;;2.45;;
27051;SDS011;14601;49.358;8.256;2022-08-01T04:22:34;2.80;;;2.28;;
27051;SDS011;14601;49.358;8.256;2022-08-01T04:25:36;2.70;;;2.30;;
27051;SDS011;14601;49.358;8.256;2022-08-01T04:28:42;3.72;;;1.95;;
27051;SDS011;14601;49.358;8.256;2022-08-01T04:31:46;2.97;;;2.13;;
27051;SDS011;14601;49.358;8.256;2022-08-01T04:34:51;2.25;;;2.15;;
27051;SDS011;14601;49.358;8.256;2022-08-01T04:37:56;6.35;;;2.40;;
27051;SDS011;14601;49.358;8.256;2022-08-01T04:41:01;2.25;;;2.08;;
27051;SDS011;14601;49.358;8.256;2022-08-01T04:44:06;5.65;;;2.35;;
27051;SDS011;14601;49.358;8.256;2022-08-01T04:47:08;3.45;;;2.40;;
27051;SDS011;14601;49.358;8.256;2022-08-01T04:50:12;9.55;;;2.88;;
27051;SDS011;14601;49.358;8.256;2022-08-01T04:53:14;4.32;;;2.58;;
27051;SDS011;14601;49.358;8.256;2022-08-01T04:56:18;2.63;;;2.40;;
27051;SDS011;14601;49.358;8.256;2022-08-01T04:59:21;2.47;;;2.25;;
27051;SDS011;14601;49.358;8.256;2022-08-01T05:02:41;2.22;;;2.05;;
27051;SDS011;14601;49.358;8.256;2022-08-01T05:05:44;3.97;;;2.70;;
27051;SDS011;14601;49.358;8.256;2022-08-01T05:08:46;4.78;;;2.50;;
27051;SDS011;14601;49.358;8.256;2022-08-01T05:11:48;4.65;;;2.33;;
27051;SDS011;14601;49.358;8.256;2022-08-01T05:14:49;3.55;;;2.33;;
27051;SDS011;14601;49.358;8.256;2022-08-01T05:17:51;4.63;;;2.35;;
27051;SDS011;14601;49.358;8.256;2022-08-01T05:20:54;4.57;;;2.25;;
27051;SDS011;14601;49.358;8.256;2022-08-01T05:23:56;2.10;;;1.90;;
27051;SDS011;14601;49.358;8.256;2022-08-01T05:26:58;2.85;;;2.05;;
27051;SDS011;14601;49.358;8.256;2022-08-01T05:30:01;3.95;;;2.00;;
27051;SDS011;14601;49.358;8.256;2022-08-01T05:33:02;4.22;;;2.20;;
27051;SDS011;14601;49.358;8.256;2022-08-01T05:36:06;4.93;;;1.88;;
27051;SDS011;14601;49.358;8.256;2022-08-01T05:39:08;2.20;;;1.90;;
27051;SDS011;14601;49.358;8.256;2022-08-01T05:42:10;4.18;;;1.83;;
27051;SDS011;14601;49.358;8.256;2022-08-01T05:45:12;3.25;;;1.67;;
27051;SDS011;14601;49.358;8.256;2022-08-01T05:48:13;5.88;;;1.63;;
27051;SDS011;14601;49.358;8.256;2022-08-01T05:51:17;1.88;;;1.45;;
27051;SDS011;14601;49.358;8.256;2022-08-01T05:54:18;6.20;;;1.55;;
27051;SDS011;14601;49.358;8.256;2022-08-01T05:57:20;1.33;;;1.30;;
27051;SDS011;14601;49.358;8.256;2022-08-01T06:00:22;1.15;;;1.05;;
27051;SDS011;14601;49.358;8.256;2022-08-01T06:03:24;1.05;;;0.90;;
27051;SDS011;14601;49.358;8.256;2022-08-01T06:06:27;1.20;;;0.88;;
27051;SDS011;14601;49.358;8.256;2022-08-01T06:09:29;2.28;;;0.85;;
27051;SDS011;14601;49.358;8.256;2022-08-01T06:12:32;0.90;;;0.90;;
27051;SDS011;14601;49.358;8.256;2022-08-01T06:15:34;2.35;;;0.68;;
27051;SDS011;14601;49.358;8.256;2022-08-01T06:18:36;2.03;;;0.80;;
27051;SDS011;14601;49.358;8.256;2022-08-01T06:21:39;2.50;;;0.95;;
27051;SDS011;14601;49.358;8.256;2022-08-01T06:24:41;3.90;;;0.95;;
27051;SDS011;14601;49.358;8.256;2022-08-01T06:27:43;3.72;;;0.75;;
27051;SDS011;14601;49.358;8.256;2022-08-01T06:30:44;1.52;;;1.00;;
27051;SDS011;14601;49.358;8.256;2022-08-01T06:33:46;1.17;;;0.90;;
27051;SDS011;14601;49.358;8.256;2022-08-01T06:36:49;2.90;;;1.00;;
27051;SDS011;14601;49.358;8.256;2022-08-01T06:39:52;1.92;;;0.90;;
27051;SDS011;14601;49.358;8.256;2022-08-01T06:42:54;4.10;;;1.33;;
27051;SDS011;14601;49.358;8.256;2022-08-01T06:45:56;2.70;;;1.00;;
27051;SDS011;14601;49.358;8.256;2022-08-01T06:48:58;1.75;;;1.05;;
27051;SDS011;14601;49.358;8.256;2022-08-01T06:52:02;1.38;;;1.00;;
27051;SDS011;14601;49.358;8.256;2022-08-01T06:55:04;2.08;;;1.00;;
27051;SDS011;14601;49.358;8.256;2022-08-01T06:58:07;1.50;;;0.88;;
27051;SDS011;14601;49.358;8.256;2022-08-01T07:01:09;2.35;;;1.17;;
27051;SDS011;14601;49.358;8.256;2022-08-01T07:04:13;6.73;;;1.20;;
27051;SDS011;14601;49.358;8.256;2022-08-01T07:07:16;1.90;;;1.25;;
27051;SDS011;14601;49.358;8.256;2022-08-01T07:10:18;1.30;;;0.93;;
27051;SDS011;14601;49.358;8.256;2022-08-01T07:13:20;0.88;;;0.88;;
27051;SDS011;14601;49.358;8.256;2022-08-01T07:16:25;3.03;;;1.00;;
27051;SDS011;14601;49.358;8.256;2022-08-01T07:19:26;0.98;;;0.93;;
27051;SDS011;14601;49.358;8.256;2022-08-01T07:22:30;1.58;;;1.10;;
27051;SDS011;14601;49.358;8.256;2022-08-01T07:25:32;1.20;;;1.10;;
27051;SDS011;14601;49.358;8.256;2022-08-01T07:28:34;3.70;;;1.17;;
27051;SDS011;14601;49.358;8.256;2022-08-01T07:31:36;1.35;;;1.00;;
27051;SDS011;14601;49.358;8.256;2022-08-01T07:34:38;1.80;;;0.80;;
27051;SDS011;14601;49.358;8.256;2022-08-01T07:37:47;0.82;;;0.82;;
27051;SDS011;14601;49.358;8.256;2022-08-01T07:40:53;1.40;;;0.90;;
27051;SDS011;14601;49.358;8.256;2022-08-01T07:43:55;1.05;;;0.80;;
27051;SDS011;14601;49.358;8.256;2022-08-01T07:46:57;0.80;;;0.70;;
27051;SDS011;14601;49.358;8.256;2022-08-01T07:49:59;2.78;;;0.80;;
27051;SDS011;14601;49.358;8.256;2022-08-01T07:53:03;2.33;;;0.80;;
27051;SDS011;14601;49.358;8.256;2022-08-01T07:56:05;1.47;;;1.00;;
27051;SDS011;14601;49.358;8.256;2022-08-01T07:59:07;2.15;;;0.82;;
27051;SDS011;14601;49.358;8.256;2022-08-01T08:02:09;3.95;;;0.88;;
27051;SDS011;14601;49.358;8.256;2022-08-01T08:05:11;1.00;;;0.73;;
27051;SDS011;14601;49.358;8.256;2022-08-01T08:08:15;1.95;;;0.77;;
27051;SDS011;14601;49.358;8.256;2022-08-01T08:11:18;1.58;;;0.70;;
27051;SDS011;14601;49.358;8.256;2022-08-01T08:14:20;2.15;;;0.50;;
27051;SDS011;14601;49.358;8.256;2022-08-01T08:17:22;0.50;;;0.50;;
27051;SDS011;14601;49.358;8.256;2022-08-01T08:20:24;0.95;;;0.50;;
27051;SDS011;14601;49.358;8.256;2022-08-01T08:23:29;0.40;;;0.40;;
27051;SDS011;14601;49.358;8.256;2022-08-01T08:26:49;0.90;;;0.60;;
27051;SDS011;14601;49.358;8.256;2022-08-01T08:29:54;1.15;;;0.73;;
27051;SDS011;14601;49.358;8.256;2022-08-01T08:32:56;1.15;;;0.75;;
27051;SDS011;14601;49.358;8.256;2022-08-01T08:35:58;1.48;;;0.68;;
27051;SDS011;14601;49.358;8.256;2022-08-01T08:39:01;1.60;;;0.88;;
27051;SDS011;14601;49.358;8.256;2022-08-01T08:42:06;1.55;;;0.85;;
27051;SDS011;14601;49.358;8.256;2022-08-01T08:45:09;0.88;;;0.80;;
27051;SDS011;14601;49.358;8.256;2022-08-01T08:48:12;0.88;;;0.80;;
27051;SDS011;14601;49.358;8.256;2022-08-01T08:51:14;1.23;;;0.70;;
27051;SDS011;14601;49.358;8.256;2022-08-01T08:54:21;1.00;;;0.90;;
27051;SDS011;14601;49.358;8.256;2022-08-01T08:57:25;1.73;;;0.80;;
27051;SDS011;14601;49.358;8.256;2022-08-01T09:00:27;0.95;;;0.88;;
27051;SDS011;14601;49.358;8.256;2022-08-01T09:03:29;2.83;;;0.80;;
27051;SDS011;14601;49.358;8.256;2022-08-01T09:06:31;0.77;;;0.70;;
27051;SDS011;14601;49.358;8.256;2022-08-01T09:09:35;0.68;;;0.68;;
27051;SDS011;14601;49.358;8.256;2022-08-01T09:12:37;3.38;;;0.70;;
27051;SDS011;14601;49.358;8.256;2022-08-01T09:15:40;1.65;;;0.88;;
27051;SDS011;14601;49.358;8.256;2022-08-01T09:18:43;1.20;;;0.93;;
27051;SDS011;14601;49.358;8.256;2022-08-01T09:21:54;2.22;;;1.02;;
27051;SDS011;14601;49.358;8.256;2022-08-01T09:25:02;0.80;;;0.80;;
27051;SDS011;14601;49.358;8.256;2022-08-01T09:28:07;4.15;;;1.00;;
27051;SDS011;14601;49.358;8.256;2022-08-01T09:31:09;1.10;;;0.80;;
27051;SDS011;14601;49.358;8.256;2022-08-01T09:34:12;1.55;;;0.90;;
27051;SDS011;14601;49.358;8.256;2022-08-01T09:37:15;1.77;;;0.88;;
27051;SDS011;14601;49.358;8.256;2022-08-01T09:40:19;1.95;;;0.90;;
27051;SDS011;14601;49.358;8.256;2022-08-01T09:43:22;1.30;;;0.95;;
27051;SDS011;14601;49.358;8.256;2022-08-01T09:46:25;2.42;;;0.80;;
27051;SDS011;14601;49.358;8.256;2022-08-01T09:49:28;1.70;;;0.90;;
27051;SDS011;14601;49.358;8.256;2022-08-01T09:52:31;3.80;;;1.05;;
27051;SDS011;14601;49.358;8.256;2022-08-01T09:55:35;0.95;;;0.82;;
27051;SDS011;14601;49.358;8.256;2022-08-01T09:58:48;1.48;;;0.90;;
27051;SDS011;14601;49.358;8.256;2022-08-01T10:01:51;3.05;;;0.82;;
27051;SDS011;14601;49.358;8.256;2022-08-01T10:04:52;4.47;;;1.13;;
27051;SDS011;14601;49.358;8.256;2022-08-01T10:07:55;4.10;;;1.13;;
27051;SDS011;14601;49.358;8.256;2022-08-01T10:11:06;1.63;;;0.90;;
27051;SDS011;14601;49.358;8.256;2022-08-01T10:14:09;1.50;;;0.90;;
27051;SDS011;14601;49.358;8.256;2022-08-01T10:17:14;3.60;;;0.80;;
27051;SDS011;14601;49.358;8.256;2022-08-01T10:20:20;1.40;;;0.80;;
27051;SDS011;14601;49.358;8.256;2022-08-01T10:23:23;2.38;;;0.65;;
27051;SDS011;14601;49.358;8.256;2022-08-01T10:26:29;3.78;;;1.10;;
27051;SDS011;14601;49.358;8.256;2022-08-01T10:29:35;3.92;;;1.10;;
27051;SDS011;14601;49.358;8.256;2022-08-01T10:32:41;1.77;;;0.85;;
27051;SDS011;14601;49.358;8.256;2022-08-01T10:35:45;6.63;;;0.90;;
27051;SDS011;14601;49.358;8.256;2022-08-01T10:38:47;3.00;;;0.98;;
27051;SDS011;14601;49.358;8.256;2022-08-01T10:41:50;1.05;;;0.68;;
27051;SDS011;14601;49.358;8.256;2022-08-01T10:44:52;1.00;;;0.90;;
27051;SDS011;14601;49.358;8.256;2022-08-01T10:47:57;0.70;;;0.70;;
27051;SDS011;14601;49.358;8.256;2022-08-01T10:51:04;4.40;;;1.00;;
27051;SDS011;14601;49.358;8.256;2022-08-01T10:54:07;1.77;;;0.95;;
27051;SDS011;14601;49.358;8.256;2022-08-01T10:57:12;4.47;;;0.93;;
27051;SDS011;14601;49.358;8.256;2022-08-01T11:00:16;1.73;;;0.88;;
27051;SDS011;14601;49.358;8.256;2022-08-01T11:03:26;6.25;;;0.90;;
27051;SDS011;14601;49.358;8.256;2022-08-01T11:06:43;1.52;;;0.88;;
27051;SDS011;14601;49.358;8.256;2022-08-01T11:09:59;3.85;;;0.90;;
27051;SDS011;14601;49.358;8.256;2022-08-01T11:13:06;3.47;;;1.08;;
27051;SDS011;14601;49.358;8.256;2022-08-01T11:19:33;1.50;;;1.13;;
27051;SDS011;14601;49.358;8.256;2022-08-01T11:23:18;0.90;;;0.90;;
27051;SDS011;14601;49.358;8.256;2022-08-01T11:26:21;2.03;;;1.10;;
27051;SDS011;14601;49.358;8.256;2022-08-01T11:29:24;2.47;;;1.02;;
27051;SDS011;14601;49.358;8.256;2022-08-01T11:32:27;2.92;;;1.10;;
27051;SDS011;14601;49.358;8.256;2022-08-01T11:35:29;1.25;;;1.15;;
27051;SDS011;14601;49.358;8.256;2022-08-01T11:38:31;0.80;;;0.80;;
27051;SDS011;14601;49.358;8.256;2022-08-01T11:41:34;1.10;;;0.95;;
27051;SDS011;14601;49.358;8.256;2022-08-01T11:44:48;1.77;;;0.98;;
27051;SDS011;14601;49.358;8.256;2022-08-01T11:47:51;1.13;;;0.80;;
27051;SDS011;14601;49.358;8.256;2022-08-01T11:50:53;1.25;;;0.98;;
27051;SDS011;14601;49.358;8.256;2022-08-01T11:53:56;2.15;;;1.00;;
27051;SDS011;14601;49.358;8.256;2022-08-01T11:57:00;2.70;;;1.15;;
27051;SDS011;14601;49.358;8.256;2022-08-01T12:00:10;5.15;;;1.10;;
27051;SDS011;14601;49.358;8.256;2022-08-01T12:03:13;4.25;;;1.13;;
27051;SDS011;14601;49.358;8.256;2022-08-01T12:06:26;2.30;;;1.20;;
27051;SDS011;14601;49.358;8.256;2022-08-01T12:09:28;6.93;;;1.33;;
27051;SDS011;14601;49.358;8.256;2022-08-01T12:12:30;1.95;;;1.33;;
27051;SDS011;14601;49.358;8.256;2022-08-01T12:15:35;4.15;;;1.00;;
27051;SDS011;14601;49.358;8.256;2022-08-01T12:18:38;2.95;;;1.00;;
27051;SDS011;14601;49.358;8.256;2022-08-01T12:21:41;1.73;;;1.00;;
27051;SDS011;14601;49.358;8.256;2022-08-01T12:24:43;1.02;;;0.80;;
27051;SDS011;14601;49.358;8.256;2022-08-01T12:27:45;1.85;;;1.00;;
27051;SDS011;14601;49.358;8.256;2022-08-01T12:30:49;2.50;;;0.90;;
27051;SDS011;14601;49.358;8.256;2022-08-01T12:33:51;3.17;;;0.80;;
27051;SDS011;14601;49.358;8.256;2022-08-01T12:36:54;4.18;;;1.17;;
27051;SDS011;14601;49.358;8.256;2022-08-01T12:39:56;1.10;;;1.00;;
27051;SDS011;14601;49.358;8.256;2022-08-01T12:42:59;1.50;;;0.88;;
27051;SDS011;14601;49.358;8.256;2022-08-01T12:46:03;0.98;;;0.90;;
27051;SDS011;14601;49.358;8.256;2022-08-01T12:49:06;1.60;;;1.20;;
27051;SDS011;14601;49.358;8.256;2022-08-01T12:52:09;3.05;;;1.08;;
27051;SDS011;14601;49.358;8.256;2022-08-01T12:55:13;1.85;;;1.00;;
27051;SDS011;14601;49.358;8.256;2022-08-01T12:58:16;1.85;;;0.98;;
27051;SDS011;14601;49.358;8.256;2022-08-01T13:01:24;2.92;;;1.20;;
27051;SDS011;14601;49.358;8.256;2022-08-01T13:04:27;2.22;;;1.10;;
27051;SDS011;14601;49.358;8.256;2022-08-01T13:07:35;1.23;;;1.10;;
27051;SDS011;14601;49.358;8.256;2022-08-01T13:10:38;3.70;;;0.82;;
27051;SDS011;14601;49.358;8.256;2022-08-01T13:13:41;1.98;;;1.23;;
27051;SDS011;14601;49.358;8.256;2022-08-01T13:16:48;2.58;;;0.93;;
27051;SDS011;14601;49.358;8.256;2022-08-01T13:19:50;0.80;;;0.80;;
27051;SDS011;14601;49.358;8.256;2022-08-01T13:22:53;1.17;;;0.70;;
27051;SDS011;14601;49.358;8.256;2022-08-01T13:25:55;1.38;;;0.50;;
27051;SDS011;14601;49.358;8.256;2022-08-01T13:29:03;1.80;;;0.60;;
27051;SDS011;14601;49.358;8.256;2022-08-01T13:32:14;1.60;;;0.77;;
27051;SDS011;14601;49.358;8.256;2022-08-01T13:35:19;3.28;;;0.80;;
27051;SDS011;14601;49.358;8.256;2022-08-01T13:38:22;3.42;;;0.60;;
27051;SDS011;14601;49.358;8.256;2022-08-01T13:41:38;2.35;;;0.80;;
27051;SDS011;14601;49.358;8.256;2022-08-01T13:44:40;0.73;;;0.73;;
27051;SDS011;14601;49.358;8.256;2022-08-01T13:47:46;0.85;;;0.60;;
27051;SDS011;14601;49.358;8.256;2022-08-01T13:50:49;0.70;;;0.63;;
27051;SDS011;14601;49.358;8.256;2022-08-01T13:53:51;1.25;;;0.70;;
27051;SDS011;14601;49.358;8.256;2022-08-01T13:56:53;0.75;;;0.75;;
27051;SDS011;14601;49.358;8.256;2022-08-01T13:59:55;0.77;;;0.77;;
27051;SDS011;14601;49.358;8.256;2022-08-01T14:03:01;0.70;;;0.50;;
27051;SDS011;14601;49.358;8.256;2022-08-01T14:06:03;1.05;;;0.60;;
27051;SDS011;14601;49.358;8.256;2022-08-01T14:09:05;1.77;;;0.82;;
27051;SDS011;14601;49.358;8.256;2022-08-01T14:12:09;1.25;;;0.68;;
27051;SDS011;14601;49.358;8.256;2022-08-01T14:15:12;2.97;;;0.68;;
27051;SDS011;14601;49.358;8.256;2022-08-01T14:18:15;1.67;;;0.60;;
27051;SDS011;14601;49.358;8.256;2022-08-01T14:21:17;0.60;;;0.60;;
27051;SDS011;14601;49.358;8.256;2022-08-01T14:24:20;2.50;;;0.60;;
27051;SDS011;14601;49.358;8.256;2022-08-01T14:27:22;1.73;;;0.70;;
27051;SDS011;14601;49.358;8.256;2022-08-01T14:30:24;1.55;;;0.80;;
27051;SDS011;14601;49.358;8.256;2022-08-01T14:33:28;0.88;;;0.70;;
27051;SDS011;14601;49.358;8.256;2022-08-01T14:36:32;0.73;;;0.73;;
27051;SDS011;14601;49.358;8.256;2022-08-01T14:39:34;2.78;;;0.60;;
27051;SDS011;14601;49.358;8.256;2022-08-01T14:42:36;4.30;;;0.80;;
27051;SDS011;14601;49.358;8.256;2022-08-01T14:45:39;1.63;;;0.95;;
27051;SDS011;14601;49.358;8.256;2022-08-01T14:48:43;0.90;;;0.90;;
27051;SDS011;14601;49.358;8.256;2022-08-01T14:51:47;1.65;;;0.80;;
27051;SDS011;14601;49.358;8.256;2022-08-01T14:54:49;2.53;;;0.90;;
27051;SDS011;14601;49.358;8.256;2022-08-01T14:57:54;1.13;;;0.70;;
27051;SDS011;14601;49.358;8.256;2022-08-01T15:00:56;1.75;;;0.70;;
27051;SDS011;14601;49.358;8.256;2022-08-01T15:04:00;2.70;;;0.90;;
27051;SDS011;14601;49.358;8.256;2022-08-01T15:07:02;0.90;;;0.75;;
27051;SDS011;14601;49.358;8.256;2022-08-01T15:10:04;0.90;;;0.70;;
27051;SDS011;14601;49.358;8.256;2022-08-01T15:13:07;2.83;;;1.10;;
27051;SDS011;14601;49.358;8.256;2022-08-01T15:16:10;1.40;;;0.80;;
27051;SDS011;14601;49.358;8.256;2022-08-01T15:19:14;1.15;;;0.63;;
27051;SDS011;14601;49.358;8.256;2022-08-01T15:22:16;1.10;;;0.75;;
27051;SDS011;14601;49.358;8.256;2022-08-01T15:25:18;1.63;;;0.77;;
27051;SDS011;14601;49.358;8.256;2022-08-01T15:28:20;2.15;;;0.80;;
27051;SDS011;14601;49.358;8.256;2022-08-01T15:31:22;1.98;;;0.90;;
27051;SDS011;14601;49.358;8.256;2022-08-01T15:34:26;0.60;;;0.60;;
27051;SDS011;14601;49.358;8.256;2022-08-01T15:37:28;0.63;;;0.60;;
27051;SDS011;14601;49.358;8.256;2022-08-01T15:40:30;3.35;;;0.80;;
27051;SDS011;14601;49.358;8.256;2022-08-01T15:43:34;4.73;;;0.80;;
27051;SDS011;14601;49.358;8.256;2022-08-01T15:46:36;1.20;;;0.73;;
27051;SDS011;14601;49.358;8.256;2022-08-01T15:49:39;5.50;;;1.48;;
27051;SDS011;14601;49.358;8.256;2022-08-01T15:52:41;1.17;;;0.80;;
27051;SDS011;14601;49.358;8.256;2022-08-01T15:55:43;1.90;;;0.90;;
27051;SDS011;14601;49.358;8.256;2022-08-01T15:58:45;3.38;;;0.80;;
27051;SDS011;14601;49.358;8.256;2022-08-01T16:01:47;2.70;;;0.80;;
27051;SDS011;14601;49.358;8.256;2022-08-01T16:04:51;0.70;;;0.70;;
27051;SDS011;14601;49.358;8.256;2022-08-01T16:07:53;1.35;;;0.95;;
27051;SDS011;14601;49.358;8.256;2022-08-01T16:10:54;2.80;;;0.88;;
27051;SDS011;14601;49.358;8.256;2022-08-01T16:13:56;3.95;;;1.20;;
27051;SDS011;14601;49.358;8.256;2022-08-01T16:16:59;1.70;;;1.00;;
27051;SDS011;14601;49.358;8.256;2022-08-01T16:20:02;3.50;;;1.00;;
27051;SDS011;14601;49.358;8.256;2022-08-01T16:23:06;1.38;;;0.85;;
27051;SDS011;14601;49.358;8.256;2022-08-01T16:26:08;2.20;;;1.40;;
27051;SDS011;14601;49.358;8.256;2022-08-01T16:29:10;1.80;;;1.08;;
27051;SDS011;14601;49.358;8.256;2022-08-01T16:32:12;3.35;;;1.00;;
27051;SDS011;14601;49.358;8.256;2022-08-01T16:35:15;2.20;;;0.88;;
27051;SDS011;14601;49.358;8.256;2022-08-01T16:38:18;2.08;;;1.40;;
27051;SDS011;14601;49.358;8.256;2022-08-01T16:41:20;1.83;;;0.70;;
27051;SDS011;14601;49.358;8.256;2022-08-01T16:44:22;4.15;;;0.93;;
27051;SDS011;14601;49.358;8.256;2022-08-01T16:47:24;3.28;;;0.90;;
27051;SDS011;14601;49.358;8.256;2022-08-01T16:50:28;1.70;;;0.85;;
27051;SDS011;14601;49.358;8.256;2022-08-01T16:53:30;0.85;;;0.70;;
27051;SDS011;14601;49.358;8.256;2022-08-01T16:56:32;0.70;;;0.70;;
27051;SDS011;14601;49.358;8.256;2022-08-01T16:59:34;2.75;;;1.08;;
27051;SDS011;14601;49.358;8.256;2022-08-01T17:02:37;1.38;;;0.60;;
27051;SDS011;14601;49.358;8.256;2022-08-01T17:05:42;6.97;;;1.10;;
27051;SDS011;14601;49.358;8.256;2022-08-01T17:08:44;2.80;;;1.00;;
27051;SDS011;14601;49.358;8.256;2022-08-01T17:11:46;4.10;;;0.90;;
27051;SDS011;14601;49.358;8.256;2022-08-01T17:14:48;1.65;;;0.73;;
27051;SDS011;14601;49.358;8.256;2022-08-01T17:17:51;1.50;;;0.63;;
27051;SDS011;14601;49.358;8.256;2022-08-01T17:20:54;0.70;;;0.70;;
27051;SDS011;14601;49.358;8.256;2022-08-01T17:23:56;1.85;;;0.73;;
27051;SDS011;14601;49.358;8.256;2022-08-01T17:26:58;1.45;;;1.08;;
27051;SDS011;14601;49.358;8.256;2022-08-01T17:30:00;4.75;;;1.10;;
27051;SDS011;14601;49.358;8.256;2022-08-01T17:33:02;1.45;;;0.90;;
27051;SDS011;14601;49.358;8.256;2022-08-01T17:36:06;5.50;;;0.80;;
27051;SDS011;14601;49.358;8.256;2022-08-01T17:39:08;1.95;;;0.93;;
27051;SDS011;14601;49.358;8.256;2022-08-01T17:42:11;3.65;;;0.70;;
27051;SDS011;14601;49.358;8.256;2022-08-01T17:45:13;2.05;;;0.75;;
27051;SDS011;14601;49.358;8.256;2022-08-01T17:48:15;3.97;;;0.95;;
27051;SDS011;14601;49.358;8.256;2022-08-01T17:51:18;5.15;;;1.10;;
27051;SDS011;14601;49.358;8.256;2022-08-01T17:54:20;1.27;;;0.60;;
27051;SDS011;14601;49.358;8.256;2022-08-01T17:57:22;2.60;;;0.73;;
27051;SDS011;14601;49.358;8.256;2022-08-01T18:00:24;1.65;;;0.70;;
27051;SDS011;14601;49.358;8.256;2022-08-01T18:03:26;0.93;;;0.80;;
27051;SDS011;14601;49.358;8.256;2022-08-01T18:06:31;1.00;;;0.90;;
27051;SDS011;14601;49.358;8.256;2022-08-01T18:09:34;4.05;;;0.68;;
27051;SDS011;14601;49.358;8.256;2022-08-01T18:12:36;4.28;;;1.10;;
27051;SDS011;14601;49.358;8.256;2022-08-01T18:15:38;1.70;;;1.13;;
27051;SDS011;14601;49.358;8.256;2022-08-01T18:18:40;2.33;;;0.93;;
27051;SDS011;14601;49.358;8.256;2022-08-01T18:21:44;0.90;;;0.70;;
27051;SDS011;14601;49.358;8.256;2022-08-01T18:24:46;2.05;;;0.90;;
27051;SDS011;14601;49.358;8.256;2022-08-01T18:27:48;1.58;;;0.85;;
27051;SDS011;14601;49.358;8.256;2022-08-01T18:30:50;2.40;;;0.82;;
27051;SDS011;14601;49.358;8.256;2022-08-01T18:33:51;3.35;;;1.20;;